sensor_id;sensor_type;location;lat;lon;timestamp;P1;durP1;ratioP1;P2;durP2;ratioP2
6259;SDS011;3163;51.516;4.000;2023-05-07T00:00:38;4.07;;;3.40;;
6259;SDS011;3163;51.516;4.000;2023-05-07T00:03:03;3.07;;;2.37;;
6259;SDS011;3163;51.516;4.000;2023-05-07T00:05:30;2.63;;;2.43;;
6259;SDS011;3163;51.516;4.000;2023-05-07T00:07:55;7.67;;;4.00;;
6259;SDS011;3163;51.516;4.000;2023-05-07T00:10:21;4.40;;;4.00;;
6259;SDS011;3163;51.516;4.000;2023-05-07T00:12:47;1.47;;;1.43;;
6259;SDS011;3163;51.516;4.000;2023-05-07T00:15:12;8.63;;;4.60;;
6259;SDS011;3163;51.516;4.000;2023-05-07T00:17:38;5.30;;;4.20;;
6259;SDS011;3163;51.516;4.000;2023-05-07T00:20:04;6.37;;;5.23;;
6259;SDS011;3163;51.516;4.000;2023-05-07T00:22:30;2.13;;;2.00;;
6259;SDS011;3163;51.516;4.000;2023-05-07T00:24:57;5.23;;;3.40;;
6259;SDS011;3163;51.516;4.000;2023-05-07T00:27:23;2.67;;;2.47;;
6259;SDS011;3163;51.516;4.000;2023-05-07T00:29:49;1.70;;;1.57;;
6259;SDS011;3163;51.516;4.000;2023-05-07T00:32:15;2.80;;;2.53;;
6259;SDS011;3163;51.516;4.000;2023-05-07T00:34:41;4.47;;;2.87;;
6259;SDS011;3163;51.516;4.000;2023-05-07T00:37:07;1.33;;;1.23;;
6259;SDS011;3163;51.516;4.000;2023-05-07T00:39:33;1.60;;;1.50;;
6259;SDS011;3163;51.516;4.000;2023-05-07T00:41:59;3.40;;;2.17;;
6259;SDS011;3163;51.516;4.000;2023-05-07T00:44:25;2.43;;;2.20;;
6259;SDS011;3163;51.516;4.000;2023-05-07T00:46:52;1.73;;;1.47;;
6259;SDS011;3163;51.516;4.000;2023-05-07T00:49:18;2.47;;;2.27;;
6259;SDS011;3163;51.516;4.000;2023-05-07T00:51:45;6.32;;;5.15;;
6259;SDS011;3163;51.516;4.000;2023-05-07T00:54:11;2.57;;;2.17;;
6259;SDS011;3163;51.516;4.000;2023-05-07T00:56:37;2.37;;;2.17;;
6259;SDS011;3163;51.516;4.000;2023-05-07T00:59:04;2.10;;;1.98;;
6259;SDS011;3163;51.516;4.000;2023-05-07T01:01:31;6.40;;;4.23;;
6259;SDS011;3163;51.516;4.000;2023-05-07T01:03:57;2.37;;;2.17;;
6259;SDS011;3163;51.516;4.000;2023-05-07T01:06:23;3.57;;;3.27;;
6259;SDS011;3163;51.516;4.000;2023-05-07T01:08:50;4.33;;;3.80;;
6259;SDS011;3163;51.516;4.000;2023-05-07T01:11:17;3.30;;;3.00;;
6259;SDS011;3163;51.516;4.000;2023-05-07T01:13:45;6.10;;;4.13;;
6259;SDS011;3163;51.516;4.000;2023-05-07T01:16:12;4.03;;;3.63;;
6259;SDS011;3163;51.516;4.000;2023-05-07T01:18:38;2.47;;;1.50;;
6259;SDS011;3163;51.516;4.000;2023-05-07T01:21:04;1.90;;;1.80;;
6259;SDS011;3163;51.516;4.000;2023-05-07T01:23:30;1.47;;;1.37;;
6259;SDS011;3163;51.516;4.000;2023-05-07T01:25:56;1.27;;;1.27;;
6259;SDS011;3163;51.516;4.000;2023-05-07T01:28:22;2.00;;;1.90;;
6259;SDS011;3163;51.516;4.000;2023-05-07T01:30:54;1.50;;;1.40;;
6259;SDS011;3163;51.516;4.000;2023-05-07T01:33:26;4.13;;;3.50;;
6259;SDS011;3163;51.516;4.000;2023-05-07T01:35:58;2.50;;;2.30;;
6259;SDS011;3163;51.516;4.000;2023-05-07T01:38:27;3.73;;;2.07;;
6259;SDS011;3163;51.516;4.000;2023-05-07T01:40:54;1.73;;;1.63;;
6259;SDS011;3163;51.516;4.000;2023-05-07T01:43:20;3.10;;;2.80;;
6259;SDS011;3163;51.516;4.000;2023-05-07T01:45:46;4.20;;;3.00;;
6259;SDS011;3163;51.516;4.000;2023-05-07T01:48:14;1.90;;;1.80;;
6259;SDS011;3163;51.516;4.000;2023-05-07T01:50:40;5.13;;;3.77;;
6259;SDS011;3163;51.516;4.000;2023-05-07T01:53:06;2.70;;;2.50;;
6259;SDS011;3163;51.516;4.000;2023-05-07T01:55:32;3.97;;;3.20;;
6259;SDS011;3163;51.516;4.000;2023-05-07T01:57:57;2.30;;;2.10;;
6259;SDS011;3163;51.516;4.000;2023-05-07T02:00:23;2.33;;;2.10;;
6259;SDS011;3163;51.516;4.000;2023-05-07T02:02:49;4.07;;;3.73;;
6259;SDS011;3163;51.516;4.000;2023-05-07T02:05:14;2.23;;;2.03;;
6259;SDS011;3163;51.516;4.000;2023-05-07T02:07:40;5.83;;;3.03;;
6259;SDS011;3163;51.516;4.000;2023-05-07T02:10:06;4.50;;;3.90;;
6259;SDS011;3163;51.516;4.000;2023-05-07T02:12:32;1.20;;;1.20;;
6259;SDS011;3163;51.516;4.000;2023-05-07T02:14:57;3.30;;;2.63;;
6259;SDS011;3163;51.516;4.000;2023-05-07T02:17:23;2.77;;;2.40;;
6259;SDS011;3163;51.516;4.000;2023-05-07T02:19:48;3.70;;;3.40;;
6259;SDS011;3163;51.516;4.000;2023-05-07T02:22:14;5.27;;;4.47;;
6259;SDS011;3163;51.516;4.000;2023-05-07T02:24:40;5.77;;;5.20;;
6259;SDS011;3163;51.516;4.000;2023-05-07T02:27:06;3.53;;;2.73;;
6259;SDS011;3163;51.516;4.000;2023-05-07T02:29:31;2.00;;;1.90;;
6259;SDS011;3163;51.516;4.000;2023-05-07T02:31:57;3.00;;;2.17;;
6259;SDS011;3163;51.516;4.000;2023-05-07T02:34:22;2.53;;;2.33;;
6259;SDS011;3163;51.516;4.000;2023-05-07T02:36:48;3.17;;;2.73;;
6259;SDS011;3163;51.516;4.000;2023-05-07T02:39:13;6.47;;;4.87;;
6259;SDS011;3163;51.516;4.000;2023-05-07T02:41:40;4.17;;;3.80;;
6259;SDS011;3163;51.516;4.000;2023-05-07T02:44:06;9.33;;;5.50;;
6259;SDS011;3163;51.516;4.000;2023-05-07T02:46:31;1.60;;;1.50;;
6259;SDS011;3163;51.516;4.000;2023-05-07T02:48:57;1.43;;;1.33;;
6259;SDS011;3163;51.516;4.000;2023-05-07T02:51:22;4.20;;;3.23;;
6259;SDS011;3163;51.516;4.000;2023-05-07T02:53:48;2.33;;;2.07;;
6259;SDS011;3163;51.516;4.000;2023-05-07T02:56:14;2.53;;;2.33;;
6259;SDS011;3163;51.516;4.000;2023-05-07T02:58:40;6.78;;;3.70;;
6259;SDS011;3163;51.516;4.000;2023-05-07T03:01:07;3.93;;;3.43;;
6259;SDS011;3163;51.516;4.000;2023-05-07T03:03:33;2.47;;;2.17;;
6259;SDS011;3163;51.516;4.000;2023-05-07T03:05:59;6.00;;;5.40;;
6259;SDS011;3163;51.516;4.000;2023-05-07T03:08:25;6.00;;;5.50;;
6259;SDS011;3163;51.516;4.000;2023-05-07T03:10:51;6.37;;;4.70;;
6259;SDS011;3163;51.516;4.000;2023-05-07T03:13:17;1.50;;;1.50;;
6259;SDS011;3163;51.516;4.000;2023-05-07T03:15:42;2.57;;;1.67;;
6259;SDS011;3163;51.516;4.000;2023-05-07T03:18:08;6.60;;;4.63;;
6259;SDS011;3163;51.516;4.000;2023-05-07T03:20:34;1.73;;;1.63;;
6259;SDS011;3163;51.516;4.000;2023-05-07T03:23:01;1.40;;;1.30;;
6259;SDS011;3163;51.516;4.000;2023-05-07T03:25:28;3.27;;;1.80;;
6259;SDS011;3163;51.516;4.000;2023-05-07T03:27:55;4.40;;;4.07;;
6259;SDS011;3163;51.516;4.000;2023-05-07T03:30:21;2.53;;;2.33;;
6259;SDS011;3163;51.516;4.000;2023-05-07T03:32:46;2.33;;;1.83;;
6259;SDS011;3163;51.516;4.000;2023-05-07T03:35:12;1.90;;;1.57;;
6259;SDS011;3163;51.516;4.000;2023-05-07T03:37:38;3.07;;;2.47;;
6259;SDS011;3163;51.516;4.000;2023-05-07T03:40:04;2.95;;;2.65;;
6259;SDS011;3163;51.516;4.000;2023-05-07T03:42:30;3.20;;;2.90;;
6259;SDS011;3163;51.516;4.000;2023-05-07T03:44:56;2.07;;;1.90;;
6259;SDS011;3163;51.516;4.000;2023-05-07T03:47:22;2.43;;;1.90;;
6259;SDS011;3163;51.516;4.000;2023-05-07T03:49:47;4.90;;;3.90;;
6259;SDS011;3163;51.516;4.000;2023-05-07T03:52:14;7.40;;;6.33;;
6259;SDS011;3163;51.516;4.000;2023-05-07T03:54:40;2.07;;;1.87;;
6259;SDS011;3163;51.516;4.000;2023-05-07T03:57:05;5.57;;;3.83;;
6259;SDS011;3163;51.516;4.000;2023-05-07T03:59:31;7.77;;;3.23;;
6259;SDS011;3163;51.516;4.000;2023-05-07T04:01:56;2.50;;;1.97;;
6259;SDS011;3163;51.516;4.000;2023-05-07T04:04:22;3.70;;;2.70;;
6259;SDS011;3163;51.516;4.000;2023-05-07T04:06:48;3.00;;;2.80;;
6259;SDS011;3163;51.516;4.000;2023-05-07T04:09:13;7.93;;;4.60;;
6259;SDS011;3163;51.516;4.000;2023-05-07T04:11:39;5.33;;;4.83;;
6259;SDS011;3163;51.516;4.000;2023-05-07T04:14:05;2.67;;;2.47;;
6259;SDS011;3163;51.516;4.000;2023-05-07T04:16:31;2.03;;;1.80;;
6259;SDS011;3163;51.516;4.000;2023-05-07T04:18:57;3.37;;;3.10;;
6259;SDS011;3163;51.516;4.000;2023-05-07T04:21:22;4.13;;;3.10;;
6259;SDS011;3163;51.516;4.000;2023-05-07T04:23:48;5.57;;;4.67;;
6259;SDS011;3163;51.516;4.000;2023-05-07T04:26:14;3.93;;;3.20;;
6259;SDS011;3163;51.516;4.000;2023-05-07T04:28:40;6.00;;;4.13;;
6259;SDS011;3163;51.516;4.000;2023-05-07T04:31:06;4.20;;;3.40;;
6259;SDS011;3163;51.516;4.000;2023-05-07T04:33:32;5.70;;;5.17;;
6259;SDS011;3163;51.516;4.000;2023-05-07T04:35:58;4.43;;;3.57;;
6259;SDS011;3163;51.516;4.000;2023-05-07T04:38:28;4.40;;;4.00;;
6259;SDS011;3163;51.516;4.000;2023-05-07T04:40:55;1.80;;;1.70;;
6259;SDS011;3163;51.516;4.000;2023-05-07T04:43:21;2.10;;;1.90;;
6259;SDS011;3163;51.516;4.000;2023-05-07T04:45:47;2.33;;;2.13;;
6259;SDS011;3163;51.516;4.000;2023-05-07T04:48:14;2.60;;;2.40;;
6259;SDS011;3163;51.516;4.000;2023-05-07T04:50:41;2.13;;;2.03;;
6259;SDS011;3163;51.516;4.000;2023-05-07T04:53:06;1.57;;;1.47;;
6259;SDS011;3163;51.516;4.000;2023-05-07T04:55:32;3.77;;;2.50;;
6259;SDS011;3163;51.516;4.000;2023-05-07T04:57:57;3.33;;;3.13;;
6259;SDS011;3163;51.516;4.000;2023-05-07T05:00:23;9.43;;;7.47;;
6259;SDS011;3163;51.516;4.000;2023-05-07T05:02:50;7.37;;;6.63;;
6259;SDS011;3163;51.516;4.000;2023-05-07T05:05:15;8.57;;;6.23;;
6259;SDS011;3163;51.516;4.000;2023-05-07T05:07:41;7.63;;;6.10;;
6259;SDS011;3163;51.516;4.000;2023-05-07T05:10:06;6.43;;;5.83;;
6259;SDS011;3163;51.516;4.000;2023-05-07T05:12:32;6.50;;;5.90;;
6259;SDS011;3163;51.516;4.000;2023-05-07T05:14:58;6.17;;;5.57;;
6259;SDS011;3163;51.516;4.000;2023-05-07T05:17:23;6.07;;;5.17;;
6259;SDS011;3163;51.516;4.000;2023-05-07T05:19:49;6.83;;;5.37;;
6259;SDS011;3163;51.516;4.000;2023-05-07T05:22:14;7.30;;;4.90;;
6259;SDS011;3163;51.516;4.000;2023-05-07T05:24:40;6.17;;;4.50;;
6259;SDS011;3163;51.516;4.000;2023-05-07T05:27:05;9.80;;;4.93;;
6259;SDS011;3163;51.516;4.000;2023-05-07T05:29:31;6.23;;;4.73;;
6259;SDS011;3163;51.516;4.000;2023-05-07T05:31:57;4.13;;;3.80;;
6259;SDS011;3163;51.516;4.000;2023-05-07T05:34:22;6.03;;;4.53;;
6259;SDS011;3163;51.516;4.000;2023-05-07T05:36:48;4.57;;;4.17;;
6259;SDS011;3163;51.516;4.000;2023-05-07T05:39:14;5.73;;;4.10;;
6259;SDS011;3163;51.516;4.000;2023-05-07T05:41:39;7.93;;;5.03;;
6259;SDS011;3163;51.516;4.000;2023-05-07T05:44:05;6.57;;;4.70;;
6259;SDS011;3163;51.516;4.000;2023-05-07T05:46:31;6.40;;;4.90;;
6259;SDS011;3163;51.516;4.000;2023-05-07T05:48:56;4.80;;;4.10;;
6259;SDS011;3163;51.516;4.000;2023-05-07T05:51:22;8.00;;;5.50;;
6259;SDS011;3163;51.516;4.000;2023-05-07T05:53:48;3.30;;;3.10;;
6259;SDS011;3163;51.516;4.000;2023-05-07T05:56:14;6.67;;;4.70;;
6259;SDS011;3163;51.516;4.000;2023-05-07T05:58:40;5.63;;;4.43;;
6259;SDS011;3163;51.516;4.000;2023-05-07T06:01:06;3.67;;;2.97;;
6259;SDS011;3163;51.516;4.000;2023-05-07T06:03:31;5.03;;;4.33;;
6259;SDS011;3163;51.516;4.000;2023-05-07T06:05:57;6.20;;;4.60;;
6259;SDS011;3163;51.516;4.000;2023-05-07T06:08:24;2.90;;;2.63;;
6259;SDS011;3163;51.516;4.000;2023-05-07T06:10:50;2.80;;;2.60;;
6259;SDS011;3163;51.516;4.000;2023-05-07T06:13:16;4.97;;;3.67;;
6259;SDS011;3163;51.516;4.000;2023-05-07T06:15:41;7.20;;;5.93;;
6259;SDS011;3163;51.516;4.000;2023-05-07T06:18:07;9.07;;;4.80;;
6259;SDS011;3163;51.516;4.000;2023-05-07T06:20:33;8.73;;;5.40;;
6259;SDS011;3163;51.516;4.000;2023-05-07T06:22:58;6.80;;;6.10;;
6259;SDS011;3163;51.516;4.000;2023-05-07T06:25:24;6.80;;;6.10;;
6259;SDS011;3163;51.516;4.000;2023-05-07T06:27:49;2.93;;;2.73;;
6259;SDS011;3163;51.516;4.000;2023-05-07T06:30:15;2.90;;;2.27;;
6259;SDS011;3163;51.516;4.000;2023-05-07T06:32:41;2.85;;;2.60;;
6259;SDS011;3163;51.516;4.000;2023-05-07T06:35:06;2.57;;;2.30;;
6259;SDS011;3163;51.516;4.000;2023-05-07T06:37:32;3.40;;;3.13;;
6259;SDS011;3163;51.516;4.000;2023-05-07T06:39:58;5.93;;;4.40;;
6259;SDS011;3163;51.516;4.000;2023-05-07T06:42:23;2.00;;;1.90;;
6259;SDS011;3163;51.516;4.000;2023-05-07T06:44:49;2.83;;;1.70;;
6259;SDS011;3163;51.516;4.000;2023-05-07T06:47:15;5.13;;;3.97;;
6259;SDS011;3163;51.516;4.000;2023-05-07T06:49:40;2.87;;;2.23;;
6259;SDS011;3163;51.516;4.000;2023-05-07T06:52:06;4.77;;;4.33;;
6259;SDS011;3163;51.516;4.000;2023-05-07T06:54:31;1.97;;;1.87;;
6259;SDS011;3163;51.516;4.000;2023-05-07T06:56:57;5.80;;;3.87;;
6259;SDS011;3163;51.516;4.000;2023-05-07T06:59:23;4.17;;;3.17;;
6259;SDS011;3163;51.516;4.000;2023-05-07T07:01:49;1.70;;;1.60;;
6259;SDS011;3163;51.516;4.000;2023-05-07T07:04:14;4.37;;;3.73;;
6259;SDS011;3163;51.516;4.000;2023-05-07T07:06:40;3.60;;;3.23;;
6259;SDS011;3163;51.516;4.000;2023-05-07T07:09:06;4.47;;;3.97;;
6259;SDS011;3163;51.516;4.000;2023-05-07T07:11:31;1.73;;;1.63;;
6259;SDS011;3163;51.516;4.000;2023-05-07T07:13:57;1.83;;;1.70;;
6259;SDS011;3163;51.516;4.000;2023-05-07T07:16:23;2.00;;;1.90;;
6259;SDS011;3163;51.516;4.000;2023-05-07T07:18:49;2.57;;;2.37;;
6259;SDS011;3163;51.516;4.000;2023-05-07T07:21:15;7.10;;;3.60;;
6259;SDS011;3163;51.516;4.000;2023-05-07T07:23:41;2.60;;;2.40;;
6259;SDS011;3163;51.516;4.000;2023-05-07T07:26:06;9.20;;;6.80;;
6259;SDS011;3163;51.516;4.000;2023-05-07T07:28:32;4.90;;;3.83;;
6259;SDS011;3163;51.516;4.000;2023-05-07T07:30:58;3.13;;;2.83;;
6259;SDS011;3163;51.516;4.000;2023-05-07T07:33:23;1.60;;;1.50;;
6259;SDS011;3163;51.516;4.000;2023-05-07T07:35:49;7.63;;;5.17;;
6259;SDS011;3163;51.516;4.000;2023-05-07T07:38:14;7.37;;;3.73;;
6259;SDS011;3163;51.516;4.000;2023-05-07T07:40:40;1.67;;;1.57;;
6259;SDS011;3163;51.516;4.000;2023-05-07T07:43:05;3.47;;;3.17;;
6259;SDS011;3163;51.516;4.000;2023-05-07T07:45:31;3.40;;;2.77;;
6259;SDS011;3163;51.516;4.000;2023-05-07T07:47:57;2.03;;;1.93;;
6259;SDS011;3163;51.516;4.000;2023-05-07T07:50:22;1.43;;;1.43;;
6259;SDS011;3163;51.516;4.000;2023-05-07T07:52:48;1.83;;;1.73;;
6259;SDS011;3163;51.516;4.000;2023-05-07T07:55:14;5.00;;;2.30;;
6259;SDS011;3163;51.516;4.000;2023-05-07T07:57:45;3.60;;;1.97;;
6259;SDS011;3163;51.516;4.000;2023-05-07T08:00:11;1.80;;;1.70;;
6259;SDS011;3163;51.516;4.000;2023-05-07T08:02:37;1.97;;;1.87;;
6259;SDS011;3163;51.516;4.000;2023-05-07T08:05:03;2.70;;;1.80;;
6259;SDS011;3163;51.516;4.000;2023-05-07T08:07:29;2.20;;;2.00;;
6259;SDS011;3163;51.516;4.000;2023-05-07T08:09:54;2.00;;;1.83;;
6259;SDS011;3163;51.516;4.000;2023-05-07T08:12:20;2.47;;;2.23;;
6259;SDS011;3163;51.516;4.000;2023-05-07T08:14:46;2.90;;;2.40;;
6259;SDS011;3163;51.516;4.000;2023-05-07T08:17:11;2.83;;;2.37;;
6259;SDS011;3163;51.516;4.000;2023-05-07T08:19:38;6.17;;;3.00;;
6259;SDS011;3163;51.516;4.000;2023-05-07T08:22:03;3.17;;;2.40;;
6259;SDS011;3163;51.516;4.000;2023-05-07T08:24:30;2.00;;;1.80;;
6259;SDS011;3163;51.516;4.000;2023-05-07T08:26:56;2.07;;;1.90;;
6259;SDS011;3163;51.516;4.000;2023-05-07T08:29:21;2.30;;;1.73;;
6259;SDS011;3163;51.516;4.000;2023-05-07T08:31:47;2.30;;;2.00;;
6259;SDS011;3163;51.516;4.000;2023-05-07T08:34:14;1.67;;;1.57;;
6259;SDS011;3163;51.516;4.000;2023-05-07T08:36:39;2.90;;;2.20;;
6259;SDS011;3163;51.516;4.000;2023-05-07T08:39:06;1.87;;;1.77;;
6259;SDS011;3163;51.516;4.000;2023-05-07T08:41:32;1.93;;;1.83;;
6259;SDS011;3163;51.516;4.000;2023-05-07T08:43:58;3.23;;;2.17;;
6259;SDS011;3163;51.516;4.000;2023-05-07T08:46:27;2.13;;;1.92;;
6259;SDS011;3163;51.516;4.000;2023-05-07T08:48:56;7.20;;;3.20;;
6259;SDS011;3163;51.516;4.000;2023-05-07T08:51:22;2.17;;;1.97;;
6259;SDS011;3163;51.516;4.000;2023-05-07T08:53:48;4.60;;;2.23;;
6259;SDS011;3163;51.516;4.000;2023-05-07T08:56:15;1.73;;;1.63;;
6259;SDS011;3163;51.516;4.000;2023-05-07T08:58:44;2.17;;;2.03;;
6259;SDS011;3163;51.516;4.000;2023-05-07T09:01:12;4.13;;;1.57;;
6259;SDS011;3163;51.516;4.000;2023-05-07T09:03:39;2.60;;;2.00;;
6259;SDS011;3163;51.516;4.000;2023-05-07T09:06:05;2.50;;;1.90;;
6259;SDS011;3163;51.516;4.000;2023-05-07T09:08:34;3.23;;;2.03;;
6259;SDS011;3163;51.516;4.000;2023-05-07T09:11:00;8.97;;;3.40;;
6259;SDS011;3163;51.516;4.000;2023-05-07T09:13:27;1.70;;;1.50;;
6259;SDS011;3163;51.516;4.000;2023-05-07T09:15:53;2.73;;;1.43;;
6259;SDS011;3163;51.516;4.000;2023-05-07T09:18:18;2.53;;;1.40;;
6259;SDS011;3163;51.516;4.000;2023-05-07T09:20:44;1.73;;;1.63;;
6259;SDS011;3163;51.516;4.000;2023-05-07T09:23:10;2.13;;;1.67;;
6259;SDS011;3163;51.516;4.000;2023-05-07T09:25:35;10.53;;;4.87;;
6259;SDS011;3163;51.516;4.000;2023-05-07T09:28:02;4.27;;;2.27;;
6259;SDS011;3163;51.516;4.000;2023-05-07T09:30:29;3.43;;;3.13;;
6259;SDS011;3163;51.516;4.000;2023-05-07T09:32:57;5.10;;;2.67;;
6259;SDS011;3163;51.516;4.000;2023-05-07T09:35:24;2.50;;;1.77;;
6259;SDS011;3163;51.516;4.000;2023-05-07T09:37:59;8.60;;;5.00;;
6259;SDS011;3163;51.516;4.000;2023-05-07T09:42:53;1.70;;;1.60;;
6259;SDS011;3163;51.516;4.000;2023-05-07T09:45:22;3.20;;;1.90;;
6259;SDS011;3163;51.516;4.000;2023-05-07T09:47:54;4.57;;;1.63;;
6259;SDS011;3163;51.516;4.000;2023-05-07T09:50:26;3.00;;;1.70;;
6259;SDS011;3163;51.516;4.000;2023-05-07T09:52:53;2.70;;;2.30;;
6259;SDS011;3163;51.516;4.000;2023-05-07T09:55:21;3.30;;;2.20;;
6259;SDS011;3163;51.516;4.000;2023-05-07T09:57:49;2.77;;;1.70;;
6259;SDS011;3163;51.516;4.000;2023-05-07T10:00:15;4.63;;;2.90;;
6259;SDS011;3163;51.516;4.000;2023-05-07T10:02:44;3.93;;;2.07;;
6259;SDS011;3163;51.516;4.000;2023-05-07T10:05:14;2.80;;;2.10;;
6259;SDS011;3163;51.516;4.000;2023-05-07T10:07:40;4.70;;;1.93;;
6259;SDS011;3163;51.516;4.000;2023-05-07T10:10:06;1.58;;;1.45;;
6259;SDS011;3163;51.516;4.000;2023-05-07T10:12:32;1.93;;;1.83;;
6259;SDS011;3163;51.516;4.000;2023-05-07T10:15:07;4.37;;;1.90;;
6259;SDS011;3163;51.516;4.000;2023-05-07T10:17:35;11.15;;;7.35;;
6259;SDS011;3163;51.516;4.000;2023-05-07T10:20:01;6.13;;;4.30;;
6259;SDS011;3163;51.516;4.000;2023-05-07T10:22:28;7.97;;;5.93;;
6259;SDS011;3163;51.516;4.000;2023-05-07T10:25:28;9.32;;;5.10;;
6259;SDS011;3163;51.516;4.000;2023-05-07T10:27:55;6.00;;;3.57;;
6259;SDS011;3163;51.516;4.000;2023-05-07T10:33:10;7.70;;;3.53;;
6259;SDS011;3163;51.516;4.000;2023-05-07T10:35:39;5.10;;;2.75;;
6259;SDS011;3163;51.516;4.000;2023-05-07T10:38:07;3.70;;;2.20;;
6259;SDS011;3163;51.516;4.000;2023-05-07T10:40:33;5.60;;;2.50;;
6259;SDS011;3163;51.516;4.000;2023-05-07T10:43:03;7.67;;;4.97;;
6259;SDS011;3163;51.516;4.000;2023-05-07T10:45:32;4.72;;;2.10;;
6259;SDS011;3163;51.516;4.000;2023-05-07T10:48:08;4.10;;;2.00;;
6259;SDS011;3163;51.516;4.000;2023-05-07T10:50:38;4.47;;;2.33;;
6259;SDS011;3163;51.516;4.000;2023-05-07T10:55:43;6.97;;;3.00;;
6259;SDS011;3163;51.516;4.000;2023-05-07T10:58:22;4.00;;;3.17;;
6259;SDS011;3163;51.516;4.000;2023-05-07T11:00:58;2.97;;;2.67;;
6259;SDS011;3163;51.516;4.000;2023-05-07T11:03:25;3.53;;;1.77;;
6259;SDS011;3163;51.516;4.000;2023-05-07T11:06:10;3.05;;;1.73;;
6259;SDS011;3163;51.516;4.000;2023-05-07T11:08:53;3.45;;;1.65;;
6259;SDS011;3163;51.516;4.000;2023-05-07T11:11:20;3.90;;;1.67;;
6259;SDS011;3163;51.516;4.000;2023-05-07T11:17:05;1.97;;;1.63;;
6259;SDS011;3163;51.516;4.000;2023-05-07T11:19:47;2.53;;;1.80;;
6259;SDS011;3163;51.516;4.000;2023-05-07T11:24:55;3.25;;;1.77;;
6259;SDS011;3163;51.516;4.000;2023-05-07T11:27:25;4.00;;;1.70;;
6259;SDS011;3163;51.516;4.000;2023-05-07T11:29:51;1.60;;;1.50;;
6259;SDS011;3163;51.516;4.000;2023-05-07T11:34:52;1.77;;;1.60;;
6259;SDS011;3163;51.516;4.000;2023-05-07T11:37:21;3.03;;;1.70;;
6259;SDS011;3163;51.516;4.000;2023-05-07T11:39:48;3.80;;;2.72;;
6259;SDS011;3163;51.516;4.000;2023-05-07T11:42:30;2.47;;;1.60;;
6259;SDS011;3163;51.516;4.000;2023-05-07T11:44:58;2.37;;;2.10;;
6259;SDS011;3163;51.516;4.000;2023-05-07T11:47:24;6.20;;;3.70;;
6259;SDS011;3163;51.516;4.000;2023-05-07T11:49:51;3.83;;;2.87;;
6259;SDS011;3163;51.516;4.000;2023-05-07T11:52:19;5.22;;;1.65;;
6259;SDS011;3163;51.516;4.000;2023-05-07T11:54:55;2.95;;;2.10;;
6259;SDS011;3163;51.516;4.000;2023-05-07T11:57:23;3.55;;;1.48;;
6259;SDS011;3163;51.516;4.000;2023-05-07T11:59:52;2.13;;;1.20;;
6259;SDS011;3163;51.516;4.000;2023-05-07T12:02:28;4.00;;;3.37;;
6259;SDS011;3163;51.516;4.000;2023-05-07T12:04:54;3.33;;;2.38;;
6259;SDS011;3163;51.516;4.000;2023-05-07T12:07:20;2.70;;;1.70;;
6259;SDS011;3163;51.516;4.000;2023-05-07T12:09:46;1.33;;;1.23;;
6259;SDS011;3163;51.516;4.000;2023-05-07T12:12:12;2.57;;;1.73;;
6259;SDS011;3163;51.516;4.000;2023-05-07T12:14:43;2.50;;;1.90;;
6259;SDS011;3163;51.516;4.000;2023-05-07T12:17:10;2.53;;;1.97;;
6259;SDS011;3163;51.516;4.000;2023-05-07T12:19:37;1.90;;;1.63;;
6259;SDS011;3163;51.516;4.000;2023-05-07T12:22:04;4.83;;;1.40;;
6259;SDS011;3163;51.516;4.000;2023-05-07T12:24:45;4.72;;;2.15;;
6259;SDS011;3163;51.516;4.000;2023-05-07T12:27:13;2.45;;;2.22;;
6259;SDS011;3163;51.516;4.000;2023-05-07T12:29:46;1.83;;;1.40;;
6259;SDS011;3163;51.516;4.000;2023-05-07T12:32:18;2.73;;;1.30;;
6259;SDS011;3163;51.516;4.000;2023-05-07T12:34:45;3.40;;;1.70;;
6259;SDS011;3163;51.516;4.000;2023-05-07T12:37:12;2.58;;;1.80;;
6259;SDS011;3163;51.516;4.000;2023-05-07T12:39:38;3.20;;;1.67;;
6259;SDS011;3163;51.516;4.000;2023-05-07T12:42:09;4.82;;;2.78;;
6259;SDS011;3163;51.516;4.000;2023-05-07T12:44:40;1.57;;;1.40;;
6259;SDS011;3163;51.516;4.000;2023-05-07T12:47:06;4.53;;;2.53;;
6259;SDS011;3163;51.516;4.000;2023-05-07T12:49:34;4.03;;;2.07;;
6259;SDS011;3163;51.516;4.000;2023-05-07T12:52:02;5.05;;;2.40;;
6259;SDS011;3163;51.516;4.000;2023-05-07T12:54:29;2.27;;;1.40;;
6259;SDS011;3163;51.516;4.000;2023-05-07T12:57:02;1.60;;;1.10;;
6259;SDS011;3163;51.516;4.000;2023-05-07T12:59:40;7.15;;;5.32;;
6259;SDS011;3163;51.516;4.000;2023-05-07T13:02:07;3.22;;;1.48;;
6259;SDS011;3163;51.516;4.000;2023-05-07T13:04:33;1.27;;;1.23;;
6259;SDS011;3163;51.516;4.000;2023-05-07T13:07:00;1.63;;;1.30;;
6259;SDS011;3163;51.516;4.000;2023-05-07T13:09:26;3.08;;;2.00;;
6259;SDS011;3163;51.516;4.000;2023-05-07T13:11:54;1.95;;;1.77;;
6259;SDS011;3163;51.516;4.000;2023-05-07T13:14:19;4.50;;;2.25;;
6259;SDS011;3163;51.516;4.000;2023-05-07T13:16:48;2.47;;;2.10;;
6259;SDS011;3163;51.516;4.000;2023-05-07T13:19:14;4.22;;;2.30;;
6259;SDS011;3163;51.516;4.000;2023-05-07T13:21:39;5.00;;;2.70;;
6259;SDS011;3163;51.516;4.000;2023-05-07T13:24:05;4.35;;;2.35;;
6259;SDS011;3163;51.516;4.000;2023-05-07T13:26:31;6.07;;;2.83;;
6259;SDS011;3163;51.516;4.000;2023-05-07T13:28:57;4.38;;;3.25;;
6259;SDS011;3163;51.516;4.000;2023-05-07T13:31:22;5.32;;;3.20;;
6259;SDS011;3163;51.516;4.000;2023-05-07T13:33:49;4.65;;;3.03;;
6259;SDS011;3163;51.516;4.000;2023-05-07T13:36:14;6.10;;;3.40;;
6259;SDS011;3163;51.516;4.000;2023-05-07T13:38:40;5.93;;;3.80;;
6259;SDS011;3163;51.516;4.000;2023-05-07T13:41:06;6.67;;;3.97;;
6259;SDS011;3163;51.516;4.000;2023-05-07T13:43:31;3.83;;;3.28;;
6259;SDS011;3163;51.516;4.000;2023-05-07T13:45:58;5.65;;;4.07;;
6259;SDS011;3163;51.516;4.000;2023-05-07T13:48:24;5.20;;;3.37;;
6259;SDS011;3163;51.516;4.000;2023-05-07T13:50:50;5.33;;;3.80;;
6259;SDS011;3163;51.516;4.000;2023-05-07T13:53:16;5.50;;;3.80;;
6259;SDS011;3163;51.516;4.000;2023-05-07T13:55:43;4.95;;;4.05;;
6259;SDS011;3163;51.516;4.000;2023-05-07T13:58:09;5.20;;;4.30;;
6259;SDS011;3163;51.516;4.000;2023-05-07T14:00:35;5.35;;;3.75;;
6259;SDS011;3163;51.516;4.000;2023-05-07T14:03:00;5.63;;;3.90;;
6259;SDS011;3163;51.516;4.000;2023-05-07T14:05:26;8.90;;;4.30;;
6259;SDS011;3163;51.516;4.000;2023-05-07T14:07:53;3.70;;;3.23;;
6259;SDS011;3163;51.516;4.000;2023-05-07T14:10:19;5.13;;;3.25;;
6259;SDS011;3163;51.516;4.000;2023-05-07T14:12:45;6.47;;;3.60;;
6259;SDS011;3163;51.516;4.000;2023-05-07T14:15:11;7.50;;;3.42;;
6259;SDS011;3163;51.516;4.000;2023-05-07T14:17:37;5.60;;;3.55;;
6259;SDS011;3163;51.516;4.000;2023-05-07T14:20:03;5.70;;;3.75;;
6259;SDS011;3163;51.516;4.000;2023-05-07T14:22:31;3.72;;;3.15;;
6259;SDS011;3163;51.516;4.000;2023-05-07T14:24:56;8.30;;;3.90;;
6259;SDS011;3163;51.516;4.000;2023-05-07T14:27:22;6.80;;;3.87;;
6259;SDS011;3163;51.516;4.000;2023-05-07T14:29:47;7.33;;;4.17;;
6259;SDS011;3163;51.516;4.000;2023-05-07T14:32:16;7.18;;;3.92;;
6259;SDS011;3163;51.516;4.000;2023-05-07T14:34:43;5.47;;;4.07;;
6259;SDS011;3163;51.516;4.000;2023-05-07T14:37:09;6.07;;;4.05;;
6259;SDS011;3163;51.516;4.000;2023-05-07T14:39:34;6.10;;;3.83;;
6259;SDS011;3163;51.516;4.000;2023-05-07T14:42:00;5.47;;;4.00;;
6259;SDS011;3163;51.516;4.000;2023-05-07T14:44:25;4.22;;;3.50;;
6259;SDS011;3163;51.516;4.000;2023-05-07T14:46:51;5.07;;;3.17;;
6259;SDS011;3163;51.516;4.000;2023-05-07T14:49:17;12.00;;;7.13;;
6259;SDS011;3163;51.516;4.000;2023-05-07T14:51:46;21.20;;;10.93;;
6259;SDS011;3163;51.516;4.000;2023-05-07T14:54:12;18.07;;;10.57;;
6259;SDS011;3163;51.516;4.000;2023-05-07T14:56:39;20.07;;;12.87;;
6259;SDS011;3163;51.516;4.000;2023-05-07T14:59:05;20.00;;;12.70;;
6259;SDS011;3163;51.516;4.000;2023-05-07T15:01:32;17.47;;;12.93;;
6259;SDS011;3163;51.516;4.000;2023-05-07T15:03:59;25.47;;;14.53;;
6259;SDS011;3163;51.516;4.000;2023-05-07T15:06:25;22.00;;;14.10;;
6259;SDS011;3163;51.516;4.000;2023-05-07T15:08:51;18.57;;;11.17;;
6259;SDS011;3163;51.516;4.000;2023-05-07T15:11:17;23.70;;;12.77;;
6259;SDS011;3163;51.516;4.000;2023-05-07T15:13:43;19.20;;;12.23;;
6259;SDS011;3163;51.516;4.000;2023-05-07T15:16:08;15.43;;;11.13;;
6259;SDS011;3163;51.516;4.000;2023-05-07T15:18:34;16.67;;;13.20;;
6259;SDS011;3163;51.516;4.000;2023-05-07T15:20:59;24.13;;;14.23;;
6259;SDS011;3163;51.516;4.000;2023-05-07T15:23:25;17.63;;;11.53;;
6259;SDS011;3163;51.516;4.000;2023-05-07T15:25:51;13.87;;;9.20;;
6259;SDS011;3163;51.516;4.000;2023-05-07T15:28:17;13.57;;;7.27;;